Time;durP1;ratioP1;P1;durP2;ratioP2;P2;SDS_P1;SDS_P2;PMS_P1;PMS_P2;Temp;Humidity;BMP_temperature;BMP_pressure;BME280_temperature;BME280_humidity;BME280_pressure;Samples;Min_cycle;Max_cycle;Signal;HPM_P1;HPM_P2
2021/11/03 00:00:05;;;;;;;21.57;15.07;;;5.80;79.60;;;;;;5078875;28;20541;-62
2021/11/03 00:02:34;;;;;;;22.13;16.43;;;5.80;99.90;;;;;;5078825;28;20462;-62
2021/11/03 00:05:06;;;;;;;20.40;16.60;;;5.80;99.90;;;;;;5079063;28;20461;-62
2021/11/03 00:07:33;;;;;;;21.93;15.63;;;5.80;99.90;;;;;;5076317;28;20480;-63
2021/11/03 00:10:06;;;;;;;19.07;15.57;;;5.70;99.90;;;;;;5095308;28;20447;-63
2021/11/03 00:12:34;;;;;;;21.73;15.57;;;5.70;99.90;;;;;;5099147;28;20510;-63
2021/11/03 00:15:01;;;;;;;19.93;15.77;;;5.70;99.90;;;;;;5085529;28;20511;-63
2021/11/03 00:17:28;;;;;;;19.10;15.83;;;5.70;99.90;;;;;;5077453;28;20512;-63
2021/11/03 00:19:55;;;;;;;21.00;15.60;;;5.70;99.90;;;;;;5078695;28;20472;-63
2021/11/03 00:22:22;;;;;;;20.00;16.10;;;5.80;99.90;;;;;;5079117;28;20439;-63
2021/11/03 00:24:49;;;;;;;19.47;15.70;;;5.80;99.90;;;;;;5079067;28;20534;-63
2021/11/03 00:27:18;;;;;;;27.47;17.03;;;5.80;99.90;;;;;;5078356;28;20432;-63
2021/11/03 00:29:47;;;;;;;28.23;20.70;;;5.80;99.90;;;;;;5078611;28;20949;-63
2021/11/03 00:32:22;;;;;;;45.50;26.90;;;5.70;99.90;;;;;;5078450;28;20448;-63
2021/11/03 00:34:49;;;;;;;28.23;21.13;;;5.70;99.90;;;;;;5079140;28;20466;-63
2021/11/03 00:37:16;;;;;;;26.43;18.43;;;5.60;99.90;;;;;;5078148;28;20539;-63
2021/11/03 00:39:43;;;;;;;20.47;16.10;;;5.60;99.90;;;;;;5078219;28;20587;-63
2021/11/03 00:42:12;;;;;;;21.23;14.97;;;5.50;99.90;;;;;;5078269;28;20465;-63
2021/11/03 00:44:40;;;;;;;24.00;16.30;;;5.50;99.90;;;;;;5078495;28;20443;-63
2021/11/03 00:47:10;;;;;;;21.27;14.93;;;5.50;99.90;;;;;;5078183;28;20798;-63
2021/11/03 00:49:37;;;;;;;18.83;15.13;;;5.40;99.90;;;;;;5077890;28;20461;-63
2021/11/03 00:52:04;;;;;;;20.13;14.90;;;5.40;99.90;;;;;;5077505;28;20461;-63
2021/11/03 00:54:31;;;;;;;17.83;14.27;;;5.30;99.90;;;;;;5078011;28;20526;-63
2021/11/03 00:56:58;;;;;;;19.53;14.90;;;5.20;99.90;;;;;;5078048;28;20533;-63
2021/11/03 00:59:28;;;;;;;19.67;14.80;;;5.00;99.90;;;;;;5077609;28;20537;-63
2021/11/03 01:01:56;;;;;;;19.13;14.33;;;4.90;99.90;;;;;;5077745;28;20462;-63
2021/11/03 01:04:26;;;;;;;18.07;14.70;;;4.80;99.90;;;;;;5077888;28;20465;-63
2021/11/03 01:06:54;;;;;;;16.30;14.40;;;4.80;99.90;;;;;;5077597;28;20493;-63
2021/11/03 01:09:20;;;;;;;17.60;13.33;;;4.70;99.90;;;;;;5077763;28;20458;-63
2021/11/03 01:11:48;;;;;;;19.97;14.03;;;4.70;99.90;;;;;;5077895;28;20523;-63
2021/11/03 01:14:17;;;;;;;21.17;15.90;;;4.70;99.90;;;;;;5077141;28;20465;-63
2021/11/03 01:16:45;;;;;;;15.93;14.17;;;4.60;99.90;;;;;;5077525;28;20447;-63
2021/11/03 01:19:13;;;;;;;20.10;15.00;;;4.60;99.90;;;;;;5077697;28;20501;-63
2021/11/03 01:21:42;;;;;;;20.67;15.60;;;4.50;99.90;;;;;;5077976;28;20850;-63
2021/11/03 01:24:09;;;;;;;18.07;14.73;;;4.60;99.90;;;;;;5077586;28;20519;-63
2021/11/03 01:26:39;;;;;;;20.00;15.57;;;4.70;99.90;;;;;;5077429;28;20465;-63
2021/11/03 01:29:07;;;;;;;18.00;14.43;;;4.70;99.90;;;;;;5077078;28;20459;-63
2021/11/03 01:31:38;;;;;;;22.77;16.00;;;4.70;99.90;;;;;;5077488;28;20465;-63
2021/11/03 01:34:06;;;;;;;21.57;16.80;;;4.70;99.90;;;;;;5077764;28;20488;-63
2021/11/03 01:36:34;;;;;;;21.50;16.30;;;4.70;99.90;;;;;;5077402;28;20850;-63
2021/11/03 01:39:02;;;;;;;22.13;15.20;;;4.70;99.90;;;;;;5077502;28;20436;-63
2021/11/03 01:41:32;;;;;;;22.03;15.47;;;4.70;99.90;;;;;;5077395;28;20440;-63
2021/11/03 01:44:04;;;;;;;19.90;15.20;;;4.80;99.90;;;;;;5077324;28;20436;-63
2021/11/03 01:46:34;;;;;;;21.57;15.20;;;4.80;99.90;;;;;;5076972;28;20465;-63
2021/11/03 01:49:03;;;;;;;24.03;16.43;;;4.80;99.90;;;;;;5077324;28;20465;-63
2021/11/03 01:51:37;;;;;;;18.90;15.50;;;4.80;99.90;;;;;;5077768;28;20891;-63
2021/11/03 01:54:07;;;;;;;18.50;15.00;;;4.90;99.90;;;;;;5077697;28;20465;-63
2021/11/03 01:56:35;;;;;;;20.03;14.47;;;4.80;99.90;;;;;;5077181;28;20469;-63
2021/11/03 01:59:07;;;;;;;19.57;15.93;;;4.90;99.90;;;;;;5076740;28;20562;-63
2021/11/03 02:01:34;;;;;;;20.60;16.43;;;4.90;99.90;;;;;;5076993;28;20440;-63
2021/11/03 02:04:02;;;;;;;19.07;14.40;;;4.90;99.90;;;;;;5077421;28;20461;-64
2021/11/03 02:06:29;;;;;;;18.53;14.97;;;4.90;99.90;;;;;;5077081;28;20899;-64
2021/11/03 02:09:00;;;;;;;20.00;15.80;;;4.90;99.90;;;;;;5076873;28;20442;-64
2021/11/03 02:11:30;;;;;;;18.60;15.10;;;4.80;99.90;;;;;;5076927;28;20918;-65
2021/11/03 02:13:58;;;;;;;16.80;13.53;;;4.70;99.90;;;;;;5077140;28;20469;-64
2021/11/03 02:16:26;;;;;;;19.00;14.40;;;4.50;99.90;;;;;;5077492;28;20461;-64
2021/11/03 02:18:53;;;;;;;16.63;12.90;;;4.40;99.90;;;;;;5076821;28;20522;-64
2021/11/03 02:21:27;;;;;;;17.63;13.63;;;4.40;99.90;;;;;;5077112;28;20526;-64
2021/11/03 02:24:02;;;;;;;18.27;14.40;;;4.40;99.90;;;;;;5077021;28;20562;-64
2021/11/03 02:26:35;;;;;;;16.20;13.83;;;4.40;99.90;;;;;;5076602;28;20914;-64
2021/11/03 02:29:06;;;;;;;19.60;15.47;;;4.40;99.90;;;;;;5076813;28;20894;-64
2021/11/03 02:31:37;;;;;;;19.80;14.40;;;4.50;99.90;;;;;;5077169;28;20530;-64
2021/11/03 02:34:06;;;;;;;19.73;15.30;;;4.60;99.90;;;;;;5076948;28;20892;-64
2021/11/03 02:36:34;;;;;;;16.60;13.27;;;4.50;99.90;;;;;;5076919;28;20464;-64
2021/11/03 02:39:07;;;;;;;18.63;15.27;;;4.40;99.90;;;;;;5076668;28;20810;-64
2021/11/03 02:41:38;;;;;;;18.43;14.27;;;4.40;99.90;;;;;;5079923;28;20468;-64
2021/11/03 02:44:12;;;;;;;16.40;13.60;;;4.50;99.90;;;;;;5080558;28;20569;-64
2021/11/03 02:46:39;;;;;;;17.23;14.33;;;4.40;99.90;;;;;;5080287;28;20931;-64
2021/11/03 02:49:07;;;;;;;20.53;13.83;;;4.40;99.90;;;;;;5080612;28;20964;-64
2021/11/03 02:51:36;;;;;;;19.03;13.40;;;4.40;99.90;;;;;;5080389;28;20461;-64
2021/11/03 02:54:09;;;;;;;14.80;12.50;;;4.40;99.90;;;;;;5080515;28;20461;-64
2021/11/03 02:56:40;;;;;;;15.43;12.67;;;4.40;99.90;;;;;;5079898;28;20487;-64
2021/11/03 02:59:10;;;;;;;16.77;12.20;;;4.40;99.90;;;;;;5080130;28;20497;-64
2021/11/03 03:01:41;;;;;;;17.10;12.80;;;4.40;99.90;;;;;;5080158;28;20461;-64
2021/11/03 03:04:11;;;;;;;16.70;12.60;;;4.30;99.90;;;;;;5080493;28;20432;-64
2021/11/03 03:06:38;;;;;;;16.10;12.00;;;4.30;99.90;;;;;;5080163;28;20854;-64
2021/11/03 03:09:07;;;;;;;16.70;14.07;;;4.30;99.90;;;;;;5080132;28;20440;-64
2021/11/03 03:11:42;;;;;;;15.90;12.77;;;4.20;99.90;;;;;;5080626;28;20477;-64
2021/11/03 03:14:13;;;;;;;17.17;12.50;;;4.20;99.90;;;;;;5079467;28;20496;-64
2021/11/03 03:16:41;;;;;;;17.57;14.70;;;4.20;99.90;;;;;;5079891;28;20905;-64
2021/11/03 03:19:08;;;;;;;14.40;12.03;;;4.30;99.90;;;;;;5079644;28;20501;-64
2021/11/03 03:21:35;;;;;;;17.60;13.53;;;4.20;99.90;;;;;;5079890;28;20485;-64
2021/11/03 03:24:04;;;;;;;17.20;13.33;;;4.20;99.90;;;;;;5079950;28;20494;-64
2021/11/03 03:26:32;;;;;;;19.30;13.80;;;4.20;99.90;;;;;;5079716;28;20515;-64
2021/11/03 03:29:01;;;;;;;16.83;13.03;;;4.10;99.90;;;;;;5080019;28;20784;-64
2021/11/03 03:31:29;;;;;;;20.33;13.67;;;3.90;99.90;;;;;;5079352;28;20493;-64
2021/11/03 03:34:00;;;;;;;15.53;13.73;;;4.00;99.90;;;;;;5079612;28;20511;-64
2021/11/03 03:36:28;;;;;;;18.50;14.07;;;4.10;99.90;;;;;;5079455;28;20526;-64
2021/11/03 03:38:55;;;;;;;19.27;13.40;;;4.00;99.90;;;;;;5079575;28;20469;-64
2021/11/03 03:41:25;;;;;;;18.20;13.30;;;4.10;99.90;;;;;;5079672;28;20440;-64
2021/11/03 03:43:52;;;;;;;18.67;12.93;;;4.00;99.90;;;;;;5079305;28;20465;-64
2021/11/03 03:46:21;;;;;;;18.00;13.87;;;4.10;99.90;;;;;;5079393;28;20519;-64
2021/11/03 03:48:49;;;;;;;19.27;13.57;;;4.10;99.90;;;;;;5079533;28;20762;-64
2021/11/03 03:51:16;;;;;;;18.07;13.43;;;4.20;99.90;;;;;;5079706;28;20497;-64
2021/11/03 03:53:43;;;;;;;16.47;13.00;;;4.20;99.90;;;;;;5079689;28;20933;-64
2021/11/03 03:56:12;;;;;;;16.87;12.80;;;4.20;99.90;;;;;;5079766;28;20453;-64
2021/11/03 03:58:39;;;;;;;15.17;12.50;;;4.30;99.90;;;;;;5079160;28;20506;-64
2021/11/03 04:01:06;;;;;;;16.10;13.20;;;4.30;99.90;;;;;;5079046;28;20535;-64
2021/11/03 04:03:35;;;;;;;17.83;13.17;;;4.30;99.90;;;;;;5079280;28;20798;-64
2021/11/03 04:06:03;;;;;;;16.90;12.00;;;4.30;99.90;;;;;;5079263;28;20858;-64
2021/11/03 04:08:30;;;;;;;17.20;12.37;;;4.20;99.90;;;;;;5078872;28;20453;-64
2021/11/03 04:10:58;;;;;;;15.90;12.00;;;4.20;99.90;;;;;;5078634;28;20497;-64
2021/11/03 04:13:26;;;;;;;15.60;11.60;;;4.30;99.90;;;;;;5078910;28;20465;-64
2021/11/03 04:15:54;;;;;;;14.40;12.00;;;4.20;99.90;;;;;;5078844;28;20460;-64
2021/11/03 04:18:21;;;;;;;15.10;12.40;;;4.30;99.90;;;;;;5078457;28;20457;-64
2021/11/03 04:20:50;;;;;;;15.57;12.13;;;4.30;99.90;;;;;;5078841;28;20457;-64
2021/11/03 04:23:18;;;;;;;14.57;11.33;;;4.30;99.90;;;;;;5078708;28;20436;-64
2021/11/03 04:25:45;;;;;;;17.10;12.73;;;4.40;99.90;;;;;;5078823;28;20534;-64
2021/11/03 04:28:14;;;;;;;15.00;11.90;;;4.50;99.90;;;;;;5077684;28;20437;-64
2021/11/03 04:30:42;;;;;;;15.70;11.17;;;4.50;99.90;;;;;;5078450;28;20460;-64
2021/11/03 04:33:09;;;;;;;17.63;13.20;;;4.50;99.90;;;;;;5078069;28;20446;-64
2021/11/03 04:35:37;;;;;;;16.37;11.77;;;4.60;99.90;;;;;;5078478;28;20515;-64
2021/11/03 04:38:05;;;;;;;16.47;12.07;;;4.60;99.90;;;;;;5078870;28;20568;-64
2021/11/03 04:40:33;;;;;;;13.80;11.80;;;4.70;99.90;;;;;;5077947;28;20518;-64
2021/11/03 04:43:00;;;;;;;13.20;10.30;;;4.60;99.90;;;;;;5078309;28;20440;-64
2021/11/03 04:45:28;;;;;;;17.50;12.30;;;4.60;99.90;;;;;;5078245;28;20780;-64
2021/11/03 04:47:55;;;;;;;15.53;11.17;;;4.50;99.90;;;;;;5078540;28;20760;-64
2021/11/03 04:50:27;;;;;;;15.17;10.90;;;4.50;99.90;;;;;;5078053;28;20974;-64
2021/11/03 04:52:54;;;;;;;14.60;11.03;;;4.50;99.90;;;;;;5078504;28;20439;-64
2021/11/03 04:55:23;;;;;;;13.03;10.90;;;4.40;99.90;;;;;;5078526;28;20858;-64
2021/11/03 04:57:50;;;;;;;14.30;11.47;;;4.40;99.90;;;;;;5078253;28;20490;-64
2021/11/03 05:00:26;;;;;;;13.77;11.73;;;4.40;99.90;;;;;;5077491;28;20485;-64
2021/11/03 05:02:54;;;;;;;11.70;10.07;;;4.40;99.90;;;;;;5077136;28;20461;-64
2021/11/03 05:05:23;;;;;;;13.90;11.97;;;4.50;99.90;;;;;;5077622;28;20440;-64
2021/11/03 05:07:50;;;;;;;14.93;10.33;;;4.50;99.90;;;;;;5078363;28;20461;-64
2021/11/03 05:10:18;;;;;;;14.43;11.60;;;4.40;99.90;;;;;;5077467;28;20492;-64
2021/11/03 05:12:46;;;;;;;13.70;10.93;;;4.40;99.90;;;;;;5077803;28;20869;-64
2021/11/03 05:15:14;;;;;;;17.20;12.27;;;4.40;99.90;;;;;;5077715;28;20511;-64
2021/11/03 05:17:44;;;;;;;14.43;11.53;;;4.40;99.90;;;;;;5078281;28;20465;-64
2021/11/03 05:20:12;;;;;;;15.83;11.40;;;4.40;99.90;;;;;;5078110;28;20432;-64
2021/11/03 05:22:39;;;;;;;15.87;11.53;;;4.40;99.90;;;;;;5077570;28;20486;-64
2021/11/03 05:25:10;;;;;;;13.00;10.07;;;4.40;99.90;;;;;;5077669;28;20489;-64
2021/11/03 05:27:37;;;;;;;15.73;11.67;;;4.40;99.90;;;;;;5079287;28;20539;-64
2021/11/03 05:30:17;;;;;;;13.63;10.90;;;4.40;99.90;;;;;;5083316;28;20458;-64
2021/11/03 05:32:44;;;;;;;15.23;12.53;;;4.40;99.90;;;;;;5087082;28;20785;-64
2021/11/03 05:35:14;;;;;;;15.70;12.07;;;4.40;99.90;;;;;;5086223;28;20506;-64
2021/11/03 05:37:45;;;;;;;16.50;12.37;;;4.40;99.90;;;;;;5085471;28;20457;-64
2021/11/03 05:40:15;;;;;;;13.67;12.23;;;4.40;99.90;;;;;;5086282;28;20841;-64
2021/11/03 05:42:42;;;;;;;14.50;11.17;;;4.40;99.90;;;;;;5087128;28;20504;-64
2021/11/03 05:45:11;;;;;;;15.53;12.73;;;4.50;99.90;;;;;;5085448;28;20453;-64
2021/11/03 05:47:40;;;;;;;16.50;12.40;;;4.50;99.90;;;;;;5087307;28;20427;-64
2021/11/03 05:50:08;;;;;;;16.03;12.20;;;4.50;99.90;;;;;;5082423;28;20476;-64
2021/11/03 05:52:35;;;;;;;15.30;11.70;;;4.50;99.90;;;;;;5085352;28;20641;-64
2021/11/03 05:55:06;;;;;;;13.97;11.17;;;4.50;99.90;;;;;;5083705;28;20423;-64
2021/11/03 05:57:36;;;;;;;19.10;12.30;;;4.40;99.90;;;;;;5084458;28;20821;-65
2021/11/03 06:00:14;;;;;;;18.93;12.80;;;4.60;99.90;;;;;;5087777;28;20462;-65
2021/11/03 06:02:44;;;;;;;17.83;13.00;;;4.60;99.90;;;;;;5081609;28;21009;-64
2021/11/03 06:05:14;;;;;;;17.17;12.30;;;4.50;99.90;;;;;;5077445;28;20741;-64
2021/11/03 06:07:48;;;;;;;15.13;11.70;;;4.50;99.90;;;;;;5081459;28;20434;-64
2021/11/03 06:10:19;;;;;;;14.33;10.40;;;4.50;99.90;;;;;;5083739;28;20456;-64
2021/11/03 06:12:46;;;;;;;13.27;11.00;;;4.50;99.90;;;;;;5084572;28;20522;-64
2021/11/03 06:15:13;;;;;;;13.23;11.13;;;4.50;99.90;;;;;;5091124;28;21100;-64
2021/11/03 06:17:41;;;;;;;15.23;11.70;;;4.50;99.90;;;;;;5073975;28;20523;-64
2021/11/03 06:20:09;;;;;;;14.60;11.20;;;4.40;99.90;;;;;;5080750;28;20899;-64
2021/11/03 06:22:38;;;;;;;15.90;13.10;;;4.40;99.90;;;;;;5080706;28;20496;-64
2021/11/03 06:25:08;;;;;;;27.10;18.10;;;4.40;99.90;;;;;;5085039;28;20555;-64
2021/11/03 06:27:36;;;;;;;15.50;11.53;;;4.50;99.90;;;;;;5087725;28;20460;-64
2021/11/03 06:30:06;;;;;;;14.63;10.87;;;4.40;99.90;;;;;;5088401;28;20509;-64
2021/11/03 06:32:35;;;;;;;14.27;11.20;;;4.40;99.90;;;;;;5090061;28;20920;-65
2021/11/03 06:35:04;;;;;;;16.40;11.47;;;4.50;99.90;;;;;;5080295;28;20848;-65
2021/11/03 06:37:34;;;;;;;13.10;9.67;;;4.50;99.90;;;;;;5086087;28;20456;-65
2021/11/03 06:40:01;;;;;;;15.33;11.67;;;4.60;99.90;;;;;;5086958;28;20475;-65
2021/11/03 06:42:31;;;;;;;14.40;11.10;;;4.60;99.90;;;;;;5080939;28;20469;-65
2021/11/03 06:44:58;;;;;;;23.00;13.53;;;4.60;99.90;;;;;;5078169;28;20464;-65
2021/11/03 06:47:25;;;;;;;20.73;12.70;;;4.60;99.90;;;;;;5078232;28;20465;-65
2021/11/03 06:49:52;;;;;;;21.70;12.70;;;4.60;99.90;;;;;;5079412;28;20555;-65
2021/11/03 06:52:22;;;;;;;16.67;12.10;;;4.60;99.90;;;;;;5079157;28;20474;-65
2021/11/03 06:54:50;;;;;;;19.60;12.87;;;4.70;99.90;;;;;;5077882;28;20473;-65
2021/11/03 06:57:17;;;;;;;16.90;11.50;;;4.70;99.90;;;;;;5078766;28;20448;-65
2021/11/03 06:59:44;;;;;;;22.13;13.47;;;4.70;99.90;;;;;;5079412;28;20530;-65
2021/11/03 07:02:15;;;;;;;15.70;12.23;;;4.70;99.90;;;;;;5095070;28;20509;-65
2021/11/03 07:04:42;;;;;;;17.20;12.80;;;4.80;99.90;;;;;;5098714;28;20481;-65
2021/11/03 07:07:10;;;;;;;17.70;13.30;;;4.80;99.90;;;;;;5089696;28;20862;-65
2021/11/03 07:09:38;;;;;;;15.93;12.07;;;4.90;99.90;;;;;;5079481;28;20516;-65
2021/11/03 07:12:06;;;;;;;14.50;10.30;;;4.90;99.90;;;;;;5078346;28;20542;-65
2021/11/03 07:14:33;;;;;;;15.00;12.40;;;5.00;99.90;;;;;;5078770;28;20518;-65
2021/11/03 07:17:03;;;;;;;13.40;11.27;;;5.00;99.90;;;;;;5079791;28;20515;-65
2021/11/03 07:19:32;;;;;;;14.97;12.17;;;5.00;99.90;;;;;;5077113;28;20533;-65
2021/11/03 07:21:59;;;;;;;14.80;12.27;;;5.10;99.90;;;;;;5079119;28;20464;-65
2021/11/03 07:24:26;;;;;;;16.73;13.03;;;5.10;99.90;;;;;;5079626;28;20507;-65
2021/11/03 07:26:55;;;;;;;17.63;12.60;;;5.10;99.90;;;;;;5078653;28;20446;-65
2021/11/03 07:29:22;;;;;;;19.13;12.00;;;5.20;99.90;;;;;;5078747;28;20476;-65
2021/11/03 07:31:49;;;;;;;16.33;12.70;;;5.20;99.90;;;;;;5079549;28;20547;-64
2021/11/03 07:34:17;;;;;;;18.80;12.67;;;5.20;99.90;;;;;;5079496;28;20465;-64
2021/11/03 07:36:44;;;;;;;18.93;13.40;;;5.30;99.90;;;;;;5079176;28;20461;-64
2021/11/03 07:39:11;;;;;;;22.43;16.60;;;5.30;99.90;;;;;;5079692;28;20469;-64
2021/11/03 07:41:40;;;;;;;18.07;12.90;;;5.40;99.90;;;;;;5079566;28;20455;-64
2021/11/03 07:44:10;;;;;;;16.77;12.47;;;5.40;99.90;;;;;;5079840;28;20487;-64
2021/11/03 07:46:37;;;;;;;16.20;12.30;;;5.40;99.90;;;;;;5079521;28;20469;-64
2021/11/03 07:49:04;;;;;;;15.20;11.50;;;5.40;99.90;;;;;;5079222;28;20439;-64
2021/11/03 07:51:32;;;;;;;19.80;13.60;;;5.50;99.90;;;;;;5079126;28;20489;-64
2021/11/03 07:53:59;;;;;;;22.37;15.40;;;5.50;99.90;;;;;;5079234;28;20812;-64
2021/11/03 07:56:31;;;;;;;17.77;12.30;;;5.60;99.90;;;;;;5078657;28;20465;-64
2021/11/03 07:59:04;;;;;;;26.80;18.57;;;5.60;99.90;;;;;;5079022;28;20472;-64
2021/11/03 08:01:33;;;;;;;35.17;21.50;;;5.70;99.90;;;;;;5079215;28;20527;-64
2021/11/03 08:04:04;;;;;;;39.20;24.73;;;5.80;99.90;;;;;;5079400;28;20465;-64
2021/11/03 08:06:31;;;;;;;24.77;16.10;;;5.90;99.90;;;;;;5075682;28;20473;-64
2021/11/03 08:09:07;;;;;;;20.90;13.13;;;5.90;99.90;;;;;;5077186;28;20473;-64
2021/11/03 08:11:46;;;;;;;26.50;16.77;;;6.00;99.90;;;;;;5079121;28;20489;-64
2021/11/03 08:14:16;;;;;;;55.00;32.30;;;6.10;99.90;;;;;;5078679;28;20443;-64
2021/11/03 08:16:51;;;;;;;49.43;28.03;;;6.10;99.90;;;;;;5077893;28;20952;-64
2021/11/03 08:19:24;;;;;;;32.27;19.10;;;6.20;99.90;;;;;;5078529;28;20465;-64
2021/11/03 08:21:51;;;;;;;34.83;21.87;;;6.30;99.90;;;;;;5079011;28;20559;-64
2021/11/03 08:24:23;;;;;;;136.53;71.17;;;6.30;99.90;;;;;;5078479;28;20439;-63
2021/11/03 08:26:52;;;;;;;140.77;73.20;;;6.30;99.90;;;;;;5078994;28;20519;-63
2021/11/03 08:29:20;;;;;;;92.97;47.40;;;6.30;99.90;;;;;;5078540;28;20895;-63
2021/11/03 08:31:51;;;;;;;60.67;32.33;;;6.40;99.90;;;;;;5078293;28;20496;-63
2021/11/03 08:34:21;;;;;;;22.40;15.60;;;6.40;99.90;;;;;;5078244;28;20444;-63
2021/11/03 08:36:49;;;;;;;14.30;10.83;;;6.40;99.90;;;;;;5078271;28;20504;-63
2021/11/03 08:39:16;;;;;;;14.20;10.90;;;6.40;99.90;;;;;;5077685;28;20465;-63
2021/11/03 08:41:43;;;;;;;14.03;9.93;;;6.50;99.90;;;;;;5078505;28;20464;-63
2021/11/03 08:44:10;;;;;;;14.63;10.60;;;6.50;99.90;;;;;;5077665;28;20486;-63
2021/11/03 08:46:38;;;;;;;12.10;10.80;;;6.50;99.90;;;;;;5078108;28;20920;-63
2021/11/03 08:49:07;;;;;;;13.37;9.70;;;6.60;99.90;;;;;;5077996;28;20540;-63
2021/11/03 08:51:34;;;;;;;11.77;9.43;;;6.70;99.90;;;;;;5078164;28;20485;-63
2021/11/03 08:54:04;;;;;;;14.47;10.40;;;6.60;99.90;;;;;;5078203;28;20565;-63
2021/11/03 08:56:31;;;;;;;12.20;10.23;;;6.70;99.90;;;;;;5077924;28;20465;-63
2021/11/03 08:58:58;;;;;;;15.17;9.60;;;6.70;99.90;;;;;;5077186;28;20461;-63
2021/11/03 09:01:29;;;;;;;13.53;10.10;;;6.70;99.90;;;;;;5077594;28;20503;-63
2021/11/03 09:03:56;;;;;;;9.83;8.77;;;6.60;99.90;;;;;;5077985;28;20493;-63
2021/11/03 09:06:24;;;;;;;12.10;10.07;;;6.60;99.90;;;;;;5077561;28;20457;-63
2021/11/03 09:08:51;;;;;;;19.20;9.70;;;6.70;99.90;;;;;;5077474;28;20468;-63
2021/11/03 09:11:19;;;;;;;10.60;9.30;;;6.80;99.90;;;;;;5077194;28;20510;-63
2021/11/03 09:13:46;;;;;;;12.00;10.47;;;6.80;99.90;;;;;;5078015;28;20465;-63
2021/11/03 09:16:14;;;;;;;12.23;10.40;;;6.90;99.90;;;;;;5077197;28;20824;-63
2021/11/03 09:18:41;;;;;;;10.93;9.07;;;6.90;99.90;;;;;;5077944;28;20461;-63
2021/11/03 09:21:11;;;;;;;12.13;10.20;;;6.90;99.90;;;;;;5077551;28;20782;-63
2021/11/03 09:23:40;;;;;;;14.73;9.73;;;7.00;99.90;;;;;;5077580;28;20461;-63
2021/11/03 09:26:08;;;;;;;12.67;10.17;;;7.10;99.90;;;;;;5077651;28;20461;-63
2021/11/03 09:28:35;;;;;;;12.17;9.70;;;7.10;99.90;;;;;;5076957;28;20539;-63
2021/11/03 09:31:05;;;;;;;11.93;9.60;;;7.20;99.90;;;;;;5077632;28;20919;-63
2021/11/03 09:33:34;;;;;;;12.37;10.67;;;7.20;99.90;;;;;;5076858;28;20802;-63
2021/11/03 09:36:03;;;;;;;12.80;9.40;;;7.40;99.90;;;;;;5077759;28;20440;-63
2021/11/03 09:38:34;;;;;;;15.93;9.67;;;7.40;99.90;;;;;;5077280;28;20465;-63
2021/11/03 09:41:08;;;;;;;14.53;10.40;;;7.50;99.90;;;;;;5077508;28;20463;-63
2021/11/03 09:43:40;;;;;;;12.10;10.80;;;7.50;99.90;;;;;;5077614;28;20456;-63
2021/11/03 09:46:22;;;;;;;11.00;8.87;;;7.50;99.90;;;;;;5077297;28;20543;-63
2021/11/03 09:48:54;;;;;;;13.47;8.77;;;7.60;99.90;;;;;;5077095;28;20740;-63
2021/11/03 09:51:24;;;;;;;11.93;9.80;;;7.60;99.90;;;;;;5077229;28;20432;-63
2021/11/03 09:54:00;;;;;;;16.27;11.10;;;7.60;99.90;;;;;;5077379;28;20515;-63
2021/11/03 09:56:57;;;;;;;14.20;10.57;;;7.70;99.90;;;;;;5076960;28;20464;-63
2021/11/03 09:59:39;;;;;;;12.10;10.30;;;7.80;13.80;;;;;;5076812;28;20489;-63
2021/11/03 10:02:22;;;;;;;11.77;9.97;;;7.90;1.00;;;;;;5076955;28;20449;-63
2021/11/03 10:05:19;;;;;;;12.93;8.90;;;7.90;1.00;;;;;;5076818;28;20504;-63
2021/11/03 10:07:57;;;;;;;11.20;9.43;;;7.90;99.90;;;;;;5076797;28;20453;-63
2021/11/03 10:10:32;;;;;;;10.20;9.10;;;8.00;93.40;;;;;;5076753;28;20886;-63
2021/11/03 10:13:26;;;;;;;11.77;10.57;;;7.80;1.00;;;;;;5077001;28;20489;-63
2021/11/03 10:15:56;;;;;;;12.27;10.83;;;7.90;99.90;;;;;;5076796;28;20556;-63
2021/11/03 10:18:25;;;;;;;12.60;10.27;;;7.90;63.90;;;;;;5077486;28;20457;-62
2021/11/03 10:21:05;;;;;;;15.53;10.90;;;7.80;1.00;;;;;;5077138;28;20511;-62
2021/11/03 10:23:34;;;;;;;14.57;10.03;;;7.80;1.00;;;;;;5076742;28;20869;-62
2021/11/03 10:26:05;;;;;;;12.33;10.80;;;7.90;97.40;;;;;;5076998;28;20468;-62
2021/11/03 10:28:40;;;;;;;12.23;10.83;;;7.80;1.00;;;;;;5075834;28;20507;-62
2021/11/03 10:31:25;;;;;;;11.70;10.50;;;8.00;1.00;;;;;;5075966;28;20543;-62
2021/11/03 10:34:01;;;;;;;14.47;10.30;;;8.00;99.90;;;;;;5076706;28;20492;-62
2021/11/03 10:36:38;;;;;;;12.10;10.57;;;8.00;99.90;;;;;;5076634;28;20436;-62
2021/11/03 10:39:15;;;;;;;13.43;10.53;;;7.90;99.90;;;;;;5076663;28;20472;-62
2021/11/03 10:41:42;;;;;;;13.37;10.27;;;7.90;99.90;;;;;;5076525;28;20805;-62
2021/11/03 10:44:22;;;;;;;12.70;11.17;;;7.80;76.60;;;;;;5076291;28;20497;-62
2021/11/03 10:46:55;;;;;;;11.60;10.27;;;7.80;99.90;;;;;;5076585;28;20457;-62
2021/11/03 10:49:31;;;;;;;12.53;10.43;;;7.80;1.00;;;;;;5076691;28;20911;-62
2021/11/03 10:52:01;;;;;;;12.90;10.93;;;7.90;95.30;;;;;;5068828;28;20488;-62
2021/11/03 10:54:39;;;;;;;12.23;10.73;;;7.80;1.00;;;;;;5076520;28;20461;-62
2021/11/03 10:57:20;;;;;;;11.80;9.90;;;7.90;99.90;;;;;;5076824;28;20457;-62
2021/11/03 10:59:54;;;;;;;14.87;11.03;;;7.90;99.90;;;;;;5076205;28;21000;-62
2021/11/03 11:02:26;;;;;;;15.67;12.30;;;8.00;99.90;;;;;;5078568;28;20767;-62
2021/11/03 11:04:57;;;;;;;13.77;12.27;;;8.10;99.90;;;;;;5080169;28;20522;-62
2021/11/03 11:07:29;;;;;;;14.00;12.07;;;8.10;99.90;;;;;;5080043;28;20528;-62
2021/11/03 11:10:04;;;;;;;15.90;11.47;;;8.00;99.90;;;;;;5079351;28;20464;-62
2021/11/03 11:12:37;;;;;;;16.33;11.83;;;8.00;99.90;;;;;;5073879;28;20489;-62
2021/11/03 11:15:20;;;;;;;13.67;10.80;;;8.00;1.00;;;;;;5079930;28;20514;-62
2021/11/03 11:17:56;;;;;;;12.60;11.10;;;7.90;1.00;;;;;;5079531;28;20519;-61
2021/11/03 11:20:31;;;;;;;16.40;11.57;;;7.90;1.00;;;;;;5079918;28;20465;-61
2021/11/03 11:23:16;;;;;;;13.80;10.83;;;7.80;99.90;;;;;;5080417;28;20453;-61
2021/11/03 11:25:56;;;;;;;16.07;11.57;;;7.90;99.90;;;;;;5079776;28;20464;-61
2021/11/03 11:28:35;;;;;;;15.83;12.07;;;7.80;99.90;;;;;;5079596;28;20522;-62
2021/11/03 11:31:11;;;;;;;13.43;12.03;;;7.80;99.90;;;;;;5079577;28;20872;-62
2021/11/03 11:33:47;;;;;;;20.50;12.33;;;7.80;1.00;;;;;;5079785;28;20493;-61
2021/11/03 11:36:29;;;;;;;14.50;12.37;;;7.70;1.00;;;;;;5079556;28;20898;-61
2021/11/03 11:39:11;;;;;;;15.50;12.20;;;7.70;1.00;;;;;;5079403;28;20486;-62
2021/11/03 11:41:49;;;;;;;16.17;13.10;;;7.70;99.90;;;;;;5080068;28;20469;-63
2021/11/03 11:44:28;;;;;;;16.03;12.87;;;7.60;99.90;;;;;;5079405;28;20895;-64
2021/11/03 11:47:00;;;;;;;15.87;12.20;;;7.70;1.00;;;;;;5079398;28;20576;-64
2021/11/03 11:49:35;;;;;;;15.50;12.77;;;7.60;99.90;;;;;;5079296;28;20440;-64
2021/11/03 11:52:06;;;;;;;14.97;11.77;;;7.60;1.00;;;;;;5079403;28;20887;-64
2021/11/03 11:54:36;;;;;;;15.30;11.97;;;7.70;99.90;;;;;;5079169;28;20461;-64
2021/11/03 11:57:30;;;;;;;18.20;12.80;;;7.60;99.90;;;;;;5079315;28;20431;-64
2021/11/03 12:00:19;;;;;;;14.40;12.40;;;7.60;1.00;;;;;;5079215;28;20496;-64
2021/11/03 12:03:02;;;;;;;14.00;12.47;;;7.70;99.90;;;;;;5058607;28;20750;-64
2021/11/03 12:05:45;;;;;;;15.47;12.87;;;7.70;99.90;;;;;;5058917;28;20465;-64
2021/11/03 12:08:21;;;;;;;21.97;13.80;;;7.70;1.00;;;;;;5074063;28;20488;-64
2021/11/03 12:11:21;;;;;;;17.07;12.27;;;7.60;1.00;;;;;;5075280;28;20834;-64
2021/11/03 12:14:24;;;;;;;15.90;13.27;;;7.60;95.20;;;;;;5057387;28;20774;-64
2021/11/03 12:17:00;;;;;;;17.77;12.63;;;7.70;99.90;;;;;;5078858;28;20743;-64
2021/11/03 12:19:49;;;;;;;14.80;13.20;;;7.80;99.90;;;;;;5078530;28;20465;-64
2021/11/03 12:22:45;;;;;;;16.80;13.20;;;7.80;99.90;;;;;;5078412;28;20856;-64
2021/11/03 12:25:44;;;;;;;18.00;12.67;;;7.80;99.90;;;;;;5061784;28;20956;-64
2021/11/03 12:28:44;;;;;;;57.07;37.97;;;7.80;99.90;;;;;;5077947;28;20526;-65
2021/11/03 12:31:28;;;;;;;23.70;20.87;;;7.70;1.00;;;;;;5077980;28;20465;-64
2021/11/03 12:34:20;;;;;;;19.40;16.20;;;7.80;1.00;;;;;;5078154;28;20463;-65
2021/11/03 12:37:28;;;;;;;20.10;14.17;;;7.90;1.00;;;;;;5077416;28;20504;-64
2021/11/03 12:40:26;;;;;;;14.83;12.70;;;7.70;99.90;;;;;;5066401;28;20476;-64
2021/11/03 12:43:28;;;;;;;14.47;12.87;;;7.60;99.90;;;;;;5078074;28;20461;-64
2021/11/03 12:46:15;;;;;;;17.37;14.30;;;7.50;99.90;;;;;;5078123;28;20465;-64
2021/11/03 12:48:45;;;;;;;18.97;15.10;;;7.60;58.40;;;;;;5076071;28;20470;-65
2021/11/03 12:51:19;;;;;;;18.90;16.90;;;7.70;99.90;;;;;;5082019;28;20428;-64
2021/11/03 12:53:56;;;;;;;21.93;19.43;;;7.60;99.90;;;;;;5082909;28;20487;-64
2021/11/03 12:56:32;;;;;;;22.70;20.33;;;7.70;99.90;;;;;;5077534;28;20510;-65
2021/11/03 12:59:04;;;;;;;18.33;14.53;;;7.70;99.90;;;;;;5077462;28;20443;-64